Time;durP1;ratioP1;P1;durP2;ratioP2;P2;SDS_P1;SDS_P2;PMS_P1;PMS_P2;Temp;Humidity;BMP_temperature;BMP_pressure;BME280_temperature;BME280_humidity;BME280_pressure;Samples;Min_cycle;Max_cycle;Signal;HPM_P1;HPM_P2
2021/09/06 00:00:13;;;;;;;8.82;8.00;;;21.30;68.60;;;;;;5008627;28;20221;-90
2021/09/06 00:02:40;;;;;;;8.18;7.40;;;21.00;69.70;;;;;;5029082;28;20200;-90
2021/09/06 00:05:09;;;;;;;8.35;7.53;;;20.90;69.70;;;;;;5016330;28;20200;-91
2021/09/06 00:07:35;;;;;;;8.68;7.63;;;21.00;69.90;;;;;;4999569;28;20193;-90
2021/09/06 00:10:20;;;;;;;7.43;6.75;;;20.80;70.80;;;;;;4989720;28;20188;-90
2021/09/06 00:12:46;;;;;;;9.05;8.05;;;20.90;70.70;;;;;;5003841;28;20213;-90
2021/09/06 00:15:13;;;;;;;7.43;6.65;;;20.90;70.40;;;;;;5002010;28;20217;-90
2021/09/06 00:17:39;;;;;;;11.57;7.78;;;21.00;70.00;;;;;;5001743;28;20188;-90
2021/09/06 00:20:06;;;;;;;7.80;7.15;;;21.10;70.50;;;;;;5003470;28;20247;-91
2021/09/06 00:22:32;;;;;;;8.77;7.95;;;21.10;69.30;;;;;;5001228;28;20200;-90
2021/09/06 00:24:58;;;;;;;8.13;7.45;;;21.10;68.90;;;;;;5004524;28;20219;-90
2021/09/06 00:27:24;;;;;;;8.15;7.32;;;21.00;70.20;;;;;;5004085;28;20178;-90
2021/09/06 00:29:50;;;;;;;7.65;7.05;;;20.90;69.70;;;;;;5002986;28;20190;-89
2021/09/06 00:32:16;;;;;;;8.07;7.38;;;20.90;69.60;;;;;;5002957;28;20200;-89
2021/09/06 00:34:42;;;;;;;7.90;7.22;;;20.90;69.70;;;;;;4971907;28;20836;-90
2021/09/06 00:37:08;;;;;;;8.10;7.45;;;20.80;70.20;;;;;;5004422;28;20195;-89
2021/09/06 00:39:33;;;;;;;8.23;7.53;;;20.70;70.40;;;;;;4988417;28;20229;-89
2021/09/06 00:41:59;;;;;;;7.82;7.13;;;20.80;70.40;;;;;;4993796;28;20245;-89
2021/09/06 00:44:25;;;;;;;8.07;7.38;;;20.80;70.10;;;;;;4990190;28;20671;-91
2021/09/06 00:46:51;;;;;;;7.50;6.57;;;20.80;70.80;;;;;;4987300;28;20196;-92
2021/09/06 00:49:20;;;;;;;8.35;7.50;;;20.70;70.90;;;;;;4999119;28;20269;-89
2021/09/06 00:51:47;;;;;;;7.72;6.90;;;20.60;70.50;;;;;;5009451;28;20251;-89
2021/09/06 00:54:14;;;;;;;7.75;6.72;;;20.70;70.30;;;;;;5020429;28;20187;-91
2021/09/06 00:56:41;;;;;;;7.72;7.00;;;20.70;69.60;;;;;;5003159;28;20195;-91
2021/09/06 00:59:08;;;;;;;9.90;7.18;;;20.70;69.80;;;;;;5000255;28;20315;-89
2021/09/06 01:01:33;;;;;;;7.15;6.53;;;20.70;69.40;;;;;;4987034;28;20206;-89
2021/09/06 01:04:00;;;;;;;7.93;7.10;;;20.60;69.70;;;;;;5002081;28;20186;-91
2021/09/06 01:06:26;;;;;;;7.53;6.95;;;20.50;69.60;;;;;;5005446;28;20225;-91
2021/09/06 01:08:51;;;;;;;7.40;6.70;;;20.50;70.00;;;;;;5006732;28;20263;-90
2021/09/06 01:11:17;;;;;;;7.72;7.03;;;20.60;69.70;;;;;;5007327;28;20200;-89
2021/09/06 01:13:43;;;;;;;7.25;6.75;;;20.50;70.10;;;;;;5006962;28;20207;-89
2021/09/06 01:16:09;;;;;;;7.53;6.82;;;20.40;69.80;;;;;;5004305;28;20219;-89
2021/09/06 01:18:35;;;;;;;8.30;7.32;;;20.50;69.80;;;;;;5007201;28;20660;-91
2021/09/06 01:21:01;;;;;;;7.18;6.40;;;20.40;69.70;;;;;;5004595;28;20222;-89
2021/09/06 01:23:27;;;;;;;8.07;7.22;;;20.20;69.70;;;;;;5019975;28;20266;-89
2021/09/06 01:25:53;;;;;;;7.03;6.38;;;20.10;70.50;;;;;;4998924;28;20219;-90
2021/09/06 01:28:19;;;;;;;7.53;6.90;;;20.10;70.30;;;;;;5005834;28;20194;-90
2021/09/06 01:30:45;;;;;;;7.05;6.53;;;20.10;70.60;;;;;;5002747;28;20214;-90
2021/09/06 01:33:11;;;;;;;7.80;7.10;;;20.10;70.80;;;;;;5007460;28;20763;-90
2021/09/06 01:35:37;;;;;;;7.32;6.68;;;20.10;71.00;;;;;;5000125;28;20219;-90
2021/09/06 01:38:03;;;;;;;7.40;6.78;;;20.10;70.70;;;;;;5000028;28;20230;-90
2021/09/06 01:40:28;;;;;;;7.85;7.05;;;20.00;70.70;;;;;;4989893;28;21008;-90
2021/09/06 01:42:54;;;;;;;10.57;6.93;;;19.70;72.10;;;;;;5008232;28;20617;-90
2021/09/06 01:45:21;;;;;;;7.78;7.18;;;19.70;71.90;;;;;;5003041;28;20223;-90
2021/09/06 01:47:46;;;;;;;6.78;6.18;;;19.70;72.00;;;;;;5007633;28;20203;-90
2021/09/06 01:50:12;;;;;;;7.93;6.95;;;19.80;72.00;;;;;;5001426;28;20206;-90
2021/09/06 01:52:38;;;;;;;7.10;6.47;;;19.80;72.10;;;;;;4985532;28;20198;-90
2021/09/06 01:55:05;;;;;;;7.60;6.90;;;19.80;71.50;;;;;;4995734;28;20298;-90
2021/09/06 01:57:31;;;;;;;7.13;6.45;;;19.90;71.80;;;;;;5003426;28;20183;-90
2021/09/06 01:59:57;;;;;;;7.45;6.80;;;19.90;71.30;;;;;;5004129;28;20233;-90
2021/09/06 02:02:23;;;;;;;7.22;6.53;;;19.90;71.20;;;;;;5005208;28;20187;-90
2021/09/06 02:04:50;;;;;;;7.18;6.57;;;19.90;71.40;;;;;;5004061;28;20236;-90
2021/09/06 02:07:16;;;;;;;7.28;6.68;;;19.80;70.70;;;;;;5007194;28;20204;-90
2021/09/06 02:09:42;;;;;;;6.65;6.13;;;19.80;71.00;;;;;;5003048;28;20277;-90
2021/09/06 02:12:08;;;;;;;7.43;6.70;;;19.80;70.90;;;;;;4989347;28;20231;-90
2021/09/06 02:14:35;;;;;;;6.85;6.20;;;19.90;71.00;;;;;;5003921;28;20245;-90
2021/09/06 02:17:01;;;;;;;7.00;6.40;;;19.70;70.30;;;;;;5002759;28;20273;-90
2021/09/06 02:19:27;;;;;;;7.45;6.75;;;19.70;71.40;;;;;;5002653;28;20778;-91
2021/09/06 02:21:52;;;;;;;7.13;6.53;;;19.70;71.40;;;;;;5002844;28;20183;-90
2021/09/06 02:24:18;;;;;;;7.18;6.47;;;19.70;71.40;;;;;;4990367;28;20207;-90
2021/09/06 02:26:44;;;;;;;7.53;6.75;;;19.60;72.00;;;;;;4991651;28;20193;-90
2021/09/06 02:29:11;;;;;;;7.07;6.22;;;19.60;71.30;;;;;;4985796;28;20188;-90
2021/09/06 02:31:37;;;;;;;7.07;6.47;;;19.70;71.00;;;;;;4996716;28;20186;-89
2021/09/06 02:34:03;;;;;;;7.72;6.70;;;19.70;70.60;;;;;;4998853;28;20199;-90
2021/09/06 02:36:29;;;;;;;7.55;6.82;;;19.60;70.50;;;;;;4984491;28;20839;-90
2021/09/06 02:38:55;;;;;;;7.25;6.53;;;19.40;70.30;;;;;;4999539;28;20213;-90
2021/09/06 02:41:21;;;;;;;8.27;7.13;;;19.40;71.80;;;;;;4986545;28;20210;-89
2021/09/06 02:43:47;;;;;;;7.57;6.88;;;19.40;71.00;;;;;;4992959;28;20198;-90
2021/09/06 02:46:13;;;;;;;6.75;6.18;;;19.20;72.50;;;;;;5000941;28;20206;-90
2021/09/06 02:48:38;;;;;;;7.55;6.85;;;19.20;72.80;;;;;;4998908;28;20198;-89
2021/09/06 02:51:04;;;;;;;6.93;6.32;;;19.00;71.90;;;;;;5008114;28;20199;-90
2021/09/06 02:53:30;;;;;;;7.70;6.93;;;19.10;72.50;;;;;;4984130;28;20179;-89
2021/09/06 02:55:56;;;;;;;6.47;5.88;;;19.10;72.70;;;;;;5000524;28;20214;-89
2021/09/06 02:58:21;;;;;;;7.18;6.57;;;19.10;72.90;;;;;;4998747;28;20203;-91
2021/09/06 03:00:47;;;;;;;7.30;6.70;;;19.20;72.60;;;;;;4999369;28;20214;-89
2021/09/06 03:03:13;;;;;;;6.53;6.03;;;19.20;72.10;;;;;;4994496;28;20194;-89
2021/09/06 03:05:39;;;;;;;7.55;6.95;;;19.20;72.30;;;;;;4988203;28;20233;-90
2021/09/06 03:08:05;;;;;;;7.00;5.95;;;19.30;72.20;;;;;;4970828;28;20201;-89
2021/09/06 03:10:31;;;;;;;6.95;6.35;;;19.20;71.90;;;;;;4985296;28;20182;-89
2021/09/06 03:12:57;;;;;;;6.88;6.30;;;19.20;71.80;;;;;;5000763;28;20282;-89
2021/09/06 03:15:23;;;;;;;8.20;6.43;;;19.20;71.60;;;;;;5000542;28;20242;-91
2021/09/06 03:17:49;;;;;;;7.20;6.60;;;19.10;71.60;;;;;;5001239;28;20587;-91
2021/09/06 03:20:15;;;;;;;7.53;6.18;;;19.10;71.50;;;;;;4995861;28;20203;-90
2021/09/06 03:22:40;;;;;;;7.50;6.80;;;19.00;71.90;;;;;;4994528;28;20287;-89
2021/09/06 03:25:07;;;;;;;7.32;6.63;;;19.00;71.70;;;;;;5002360;28;20213;-88
2021/09/06 03:27:33;;;;;;;5.90;5.43;;;19.00;71.90;;;;;;4992089;28;20214;-88
2021/09/06 03:29:58;;;;;;;6.70;6.10;;;19.00;72.60;;;;;;4993203;28;20201;-89
2021/09/06 03:32:24;;;;;;;6.80;6.20;;;19.00;72.10;;;;;;4997857;28;20199;-89
2021/09/06 03:34:50;;;;;;;7.65;6.85;;;19.00;72.10;;;;;;5000332;28;20226;-89
2021/09/06 03:37:16;;;;;;;7.32;6.57;;;19.00;71.30;;;;;;4989135;28;20225;-89
2021/09/06 03:39:41;;;;;;;10.30;7.68;;;18.90;72.50;;;;;;4988380;28;20210;-88
2021/09/06 03:42:08;;;;;;;7.45;6.78;;;18.90;71.90;;;;;;4984531;28;20202;-89
2021/09/06 03:44:34;;;;;;;7.13;6.53;;;18.80;72.70;;;;;;5001082;28;20210;-90
2021/09/06 03:46:59;;;;;;;6.68;6.15;;;18.80;72.50;;;;;;4990304;28;20194;-90
2021/09/06 03:49:25;;;;;;;6.82;6.18;;;18.80;72.70;;;;;;5000472;28;20208;-89
2021/09/06 03:51:51;;;;;;;6.32;5.72;;;18.80;72.50;;;;;;4999185;28;20189;-90
2021/09/06 03:54:17;;;;;;;6.70;6.10;;;18.90;72.30;;;;;;4994194;28;20187;-90
2021/09/06 03:56:43;;;;;;;6.97;6.47;;;18.90;72.60;;;;;;4988841;28;20830;-89
2021/09/06 03:59:09;;;;;;;6.70;6.20;;;18.80;72.50;;;;;;4984441;28;20190;-90
2021/09/06 04:01:34;;;;;;;7.30;6.70;;;18.90;72.40;;;;;;4988844;28;20202;-89
2021/09/06 04:04:00;;;;;;;7.07;6.57;;;18.80;72.80;;;;;;4996742;28;20183;-89
2021/09/06 04:06:26;;;;;;;7.30;6.55;;;18.80;72.50;;;;;;4998731;28;20234;-89
2021/09/06 04:08:52;;;;;;;6.43;5.93;;;18.70;72.40;;;;;;5001391;28;20189;-88
2021/09/06 04:11:17;;;;;;;7.30;6.70;;;18.80;72.30;;;;;;4996102;28;20191;-89
2021/09/06 04:13:44;;;;;;;7.30;6.65;;;18.70;72.70;;;;;;4996329;28;20205;-89
2021/09/06 04:16:10;;;;;;;7.15;6.45;;;18.60;73.50;;;;;;5001857;28;20212;-89
2021/09/06 04:18:36;;;;;;;11.15;7.70;;;18.40;72.60;;;;;;5005755;28;20198;-88
2021/09/06 04:21:04;;;;;;;7.10;6.40;;;18.20;73.90;;;;;;4999226;28;20237;-88
2021/09/06 04:23:30;;;;;;;7.10;6.40;;;18.20;74.70;;;;;;5003153;28;20213;-88
2021/09/06 04:25:56;;;;;;;9.57;8.63;;;18.20;73.60;;;;;;4987785;28;20238;-89
2021/09/06 04:28:21;;;;;;;6.65;6.15;;;18.20;73.70;;;;;;4991774;28;20708;-89
2021/09/06 04:30:47;;;;;;;7.00;6.50;;;18.00;75.10;;;;;;4988700;28;20504;-89
2021/09/06 04:33:13;;;;;;;7.20;6.32;;;18.00;74.70;;;;;;5003739;28;20614;-89
2021/09/06 04:35:39;;;;;;;7.07;6.40;;;18.10;75.10;;;;;;4998731;28;20222;-89
2021/09/06 04:38:05;;;;;;;6.80;6.20;;;18.20;74.60;;;;;;4991568;28;20201;-89
2021/09/06 04:40:31;;;;;;;7.53;6.90;;;18.30;74.60;;;;;;4991167;28;20203;-89
2021/09/06 04:42:57;;;;;;;8.68;7.80;;;18.40;73.90;;;;;;5002573;28;20770;-89
2021/09/06 04:45:24;;;;;;;8.82;7.93;;;18.30;74.50;;;;;;5001307;28;20225;-89
2021/09/06 04:47:50;;;;;;;8.57;7.13;;;18.10;76.60;;;;;;4994982;28;20193;-91
2021/09/06 04:50:16;;;;;;;9.18;7.45;;;18.10;76.90;;;;;;5007668;28;20193;-88
2021/09/06 04:52:42;;;;;;;12.18;8.77;;;18.10;76.80;;;;;;5003533;28;20197;-88
2021/09/06 04:55:08;;;;;;;9.63;8.63;;;18.00;76.80;;;;;;4999409;28;20556;-89
2021/09/06 04:57:34;;;;;;;10.88;8.50;;;18.00;77.00;;;;;;4991403;28;20415;-89
2021/09/06 05:00:00;;;;;;;11.70;9.63;;;17.90;77.00;;;;;;4997534;28;20241;-88
2021/09/06 05:02:25;;;;;;;10.65;9.65;;;17.70;78.40;;;;;;4993595;28;20629;-89
2021/09/06 05:04:51;;;;;;;10.80;8.70;;;17.80;78.70;;;;;;5002297;28;20219;-89
2021/09/06 05:07:17;;;;;;;9.40;8.50;;;17.70;78.40;;;;;;4990541;28;20205;-90
2021/09/06 05:09:43;;;;;;;10.68;9.57;;;17.80;77.70;;;;;;4998042;28;20192;-90
2021/09/06 05:12:09;;;;;;;9.23;8.38;;;17.90;77.30;;;;;;5003748;28;20211;-89
2021/09/06 05:14:35;;;;;;;10.70;8.30;;;18.00;76.80;;;;;;5001490;28;20236;-90
2021/09/06 05:17:01;;;;;;;10.10;8.65;;;18.10;76.10;;;;;;4996227;28;20667;-89
2021/09/06 05:19:27;;;;;;;10.30;8.43;;;18.20;75.60;;;;;;4964914;28;20216;-90
2021/09/06 05:21:55;;;;;;;9.38;8.10;;;18.20;75.20;;;;;;4984429;28;20187;-91
2021/09/06 05:24:21;;;;;;;10.15;8.18;;;18.30;74.40;;;;;;4982637;28;20182;-91
2021/09/06 05:26:46;;;;;;;9.50;8.57;;;18.20;75.40;;;;;;4996198;28;20211;-88
2021/09/06 05:29:12;;;;;;;8.75;7.93;;;18.20;75.20;;;;;;4997964;28;20255;-88
2021/09/06 05:31:38;;;;;;;10.77;8.70;;;18.20;74.90;;;;;;4989020;28;20735;-90
2021/09/06 05:34:05;;;;;;;9.25;8.32;;;18.20;74.50;;;;;;4993507;28;20213;-87
2021/09/06 05:36:31;;;;;;;10.02;8.20;;;18.20;75.10;;;;;;5014491;28;20227;-90
2021/09/06 05:38:58;;;;;;;9.52;8.57;;;18.20;75.20;;;;;;4997018;28;20197;-88
2021/09/06 05:41:24;;;;;;;9.85;8.95;;;18.30;75.30;;;;;;4976684;28;20695;-88
2021/09/06 05:43:49;;;;;;;9.95;8.95;;;18.20;75.90;;;;;;4952599;28;20200;-88
2021/09/06 05:46:16;;;;;;;10.68;8.77;;;18.00;77.10;;;;;;5016506;28;20220;-88
2021/09/06 05:48:41;;;;;;;8.75;7.70;;;17.90;77.30;;;;;;4991733;28;20263;-88
2021/09/06 05:51:07;;;;;;;11.45;8.88;;;17.90;77.70;;;;;;4996721;28;20191;-88
2021/09/06 05:53:33;;;;;;;10.52;8.98;;;17.90;78.50;;;;;;5014089;28;20205;-88
2021/09/06 05:55:59;;;;;;;10.02;8.57;;;17.80;78.80;;;;;;4979869;28;20224;-90
2021/09/06 05:58:25;;;;;;;11.95;8.65;;;17.90;79.00;;;;;;4973487;28;20213;-88
2021/09/06 06:00:51;;;;;;;13.52;9.95;;;18.00;78.40;;;;;;4994620;28;20201;-88
2021/09/06 06:03:17;;;;;;;9.50;8.70;;;18.10;78.00;;;;;;4993474;28;20203;-88
2021/09/06 06:05:43;;;;;;;13.20;9.23;;;18.10;78.20;;;;;;4990011;28;20224;-88
2021/09/06 06:08:08;;;;;;;13.75;9.40;;;18.00;78.50;;;;;;4999456;28;20280;-88
2021/09/06 06:10:34;;;;;;;9.00;8.10;;;17.90;79.20;;;;;;4995842;28;20188;-88
2021/09/06 06:13:00;;;;;;;11.97;9.57;;;17.90;78.80;;;;;;4990498;28;20261;-88
2021/09/06 06:15:27;;;;;;;10.10;9.10;;;17.90;78.50;;;;;;4984660;28;20225;-88
2021/09/06 06:17:52;;;;;;;10.77;8.82;;;17.90;78.80;;;;;;4983852;28;20200;-88
2021/09/06 06:20:19;;;;;;;9.85;8.85;;;17.90;78.30;;;;;;4988108;28;20215;-87
2021/09/06 06:22:47;;;;;;;11.63;9.27;;;18.00;78.10;;;;;;4988366;28;20200;-88
2021/09/06 06:25:13;;;;;;;10.48;9.13;;;18.10;78.10;;;;;;4977288;28;20217;-87
2021/09/06 06:27:39;;;;;;;9.90;9.02;;;17.90;78.20;;;;;;4995479;28;20193;-90
2021/09/06 06:30:05;;;;;;;9.83;8.90;;;17.90;78.60;;;;;;5007851;28;20204;-89
2021/09/06 06:32:32;;;;;;;11.77;9.57;;;17.90;78.50;;;;;;5007188;28;20194;-88
2021/09/06 06:34:58;;;;;;;8.80;7.97;;;17.90;78.30;;;;;;4975721;28;20296;-88
2021/09/06 06:37:26;;;;;;;9.50;8.50;;;17.90;78.00;;;;;;4986576;28;20224;-88
2021/09/06 06:39:52;;;;;;;10.03;8.73;;;17.90;78.50;;;;;;4973317;28;20691;-89
2021/09/06 06:42:19;;;;;;;9.98;8.60;;;18.10;78.40;;;;;;4988536;28;20197;-88
2021/09/06 06:44:46;;;;;;;9.57;8.67;;;18.10;77.10;;;;;;4975057;28;20213;-88
2021/09/06 06:47:13;;;;;;;9.13;8.33;;;18.10;77.20;;;;;;4986701;28;20218;-88
2021/09/06 06:49:40;;;;;;;9.82;8.85;;;18.20;77.00;;;;;;5009420;28;20187;-88
2021/09/06 06:52:06;;;;;;;9.53;8.70;;;18.20;75.90;;;;;;4985301;28;20213;-89
2021/09/06 06:54:34;;;;;;;9.13;8.33;;;18.30;76.20;;;;;;5020639;23;20220;-88
2021/09/06 06:57:13;;;;;;;10.57;8.82;;;18.30;76.10;;;;;;4991733;28;20186;-88
2021/09/06 06:59:44;;;;;;;9.25;8.45;;;18.40;75.90;;;;;;4970323;28;20213;-88
2021/09/06 07:02:24;;;;;;;9.25;8.35;;;18.60;75.70;;;;;;4990124;28;20194;-89
2021/09/06 07:04:54;;;;;;;9.00;8.18;;;18.60;75.00;;;;;;4991413;28;20331;-90
2021/09/06 07:07:25;;;;;;;9.77;8.73;;;18.70;75.00;;;;;;4976765;28;20189;-90
2021/09/06 07:09:51;;;;;;;8.40;7.70;;;18.70;74.70;;;;;;4993909;28;20205;-88
2021/09/06 07:12:28;;;;;;;;;;;;;;;;;;;;;
2021/09/06 07:19:00;;;;;;;9.20;8.30;;;18.80;75.20;;;;;;4994266;28;20206;-89
2021/09/06 07:22:25;;;;;;;9.82;8.38;;;19.00;74.50;;;;;;5007187;28;20218;-89
2021/09/06 07:28:42;;;;;;;9.80;8.80;;;19.10;72.50;;;;;;4898842;28;20221;-90
2021/09/06 07:31:10;;;;;;;7.80;7.05;;;19.20;73.00;;;;;;4992882;28;20205;-88
2021/09/06 07:33:36;;;;;;;8.27;7.57;;;19.20;73.20;;;;;;4978032;28;20183;-88
2021/09/06 07:36:02;;;;;;;8.52;7.70;;;19.30;72.50;;;;;;4995190;28;20214;-88
2021/09/06 07:38:28;;;;;;;9.68;8.40;;;19.30;72.50;;;;;;4976903;28;20511;-88
2021/09/06 07:40:54;;;;;;;8.50;7.80;;;19.40;72.90;;;;;;4985910;28;20214;-88
2021/09/06 07:43:22;;;;;;;9.15;8.35;;;19.40;72.60;;;;;;4998465;28;20201;-88
2021/09/06 07:45:48;;;;;;;8.57;7.78;;;19.50;72.20;;;;;;4975937;28;20206;-88
2021/09/06 07:48:15;;;;;;;11.13;8.50;;;19.50;71.70;;;;;;4983362;28;20188;-88
2021/09/06 07:50:41;;;;;;;9.80;8.75;;;19.70;71.40;;;;;;4957185;28;20198;-89
2021/09/06 07:53:23;;;;;;;10.55;8.43;;;19.80;70.50;;;;;;4990776;28;20537;-89
2021/09/06 07:56:04;;;;;;;9.95;8.93;;;19.80;71.40;;;;;;4973030;28;20683;-89
2021/09/06 07:59:05;;;;;;;8.93;8.05;;;19.80;71.70;;;;;;4959276;28;20194;-89
2021/09/06 08:02:42;;;;;;;;;;;;;;;;;;;;;
2021/09/06 08:12:26;;;;;;;8.30;7.60;;;20.30;70.40;;;;;;4965070;28;20210;-89
2021/09/06 08:19:19;;;;;;;9.18;8.27;;;20.80;68.80;;;;;;4964883;28;20192;-89
2021/09/06 08:21:56;;;;;;;8.30;7.60;;;20.90;67.70;;;;;;4963177;28;20204;-89
2021/09/06 08:24:43;;;;;;;8.85;8.00;;;21.00;67.70;;;;;;4998953;28;20191;-89
2021/09/06 08:27:54;;;;;;;9.00;8.10;;;21.00;67.40;;;;;;4998298;28;20290;-89
2021/09/06 08:30:28;;;;;;;8.70;7.80;;;21.10;67.50;;;;;;4992117;28;20587;-89
2021/09/06 08:34:21;;;;;;;;;;;;;;;;;;;;;
2021/09/06 08:37:26;;;;;;;9.95;7.90;;;21.30;66.50;;;;;;4973698;28;20298;-89
2021/09/06 08:40:18;;;;;;;8.45;7.75;;;21.50;66.50;;;;;;5017456;28;20226;-89
2021/09/06 08:43:33;;;;;;;;;;;;;;;;;;;;;
2021/09/06 08:49:51;;;;;;;11.48;7.75;;;21.90;65.70;;;;;;4927712;29;20217;-90
2021/09/06 08:52:32;;;;;;;9.18;7.63;;;22.10;64.30;;;;;;4923675;29;20252;-89
2021/09/06 08:55:15;;;;;;;9.85;7.63;;;22.30;64.30;;;;;;4952337;28;20225;-89
2021/09/06 09:01:31;;;;;;;11.32;8.35;;;22.60;63.60;;;;;;4981225;28;20234;-89
2021/09/06 09:07:39;;;;;;;9.20;8.30;;;22.80;63.00;;;;;;4978986;28;20206;-90
2021/09/06 09:10:27;;;;;;;9.57;7.78;;;23.00;62.70;;;;;;4982385;28;20182;-90
2021/09/06 09:13:15;;;;;;;10.38;8.20;;;23.10;60.60;;;;;;4977476;28;20197;-90
2021/09/06 09:19:32;;;;;;;;;;;;;;;;;;;;;
2021/09/06 09:22:07;;;;;;;9.48;8.50;;;23.60;59.40;;;;;;4981338;28;20251;-90
2021/09/06 09:24:37;;;;;;;9.55;7.80;;;23.70;60.50;;;;;;4978423;28;20218;-90
2021/09/06 09:27:17;;;;;;;9.73;8.45;;;23.70;59.80;;;;;;4995120;28;20194;-90
2021/09/06 09:29:53;;;;;;;8.85;8.00;;;23.90;60.40;;;;;;4999838;28;20241;-90
2021/09/06 09:32:44;;;;;;;8.30;7.60;;;24.10;59.10;;;;;;4994843;28;20194;-91
2021/09/06 09:35:31;;;;;;;8.05;7.35;;;24.30;57.60;;;;;;4995621;28;20217;-91
2021/09/06 09:38:46;;;;;;;8.43;7.70;;;24.50;56.20;;;;;;4984943;28;20202;-91
2021/09/06 09:41:51;;;;;;;8.73;8.00;;;24.60;56.10;;;;;;5001573;28;20230;-90
2021/09/06 09:45:39;;;;;;;8.45;7.47;;;24.60;56.40;;;;;;4969023;28;20203;-89
2021/09/06 09:48:19;;;;;;;;;;;;;;;;;;;;;
2021/09/06 09:57:00;;;;;;;9.20;8.30;;;25.30;53.70;;;;;;5024461;28;20448;-90
2021/09/06 09:59:26;;;;;;;8.60;7.57;;;25.50;53.40;;;;;;5022331;28;20193;-90
2021/09/06 10:02:03;;;;;;;8.18;7.47;;;25.60;53.60;;;;;;5022167;28;20204;-89
2021/09/06 10:04:33;;;;;;;9.07;8.23;;;25.90;52.70;;;;;;5020035;28;20201;-90
2021/09/06 10:07:00;;;;;;;8.60;7.90;;;26.10;52.40;;;;;;5017539;28;20186;-89
2021/09/06 10:09:27;;;;;;;9.15;8.25;;;26.30;51.10;;;;;;5016048;28;20257;-89
2021/09/06 10:12:04;;;;;;;8.75;7.97;;;26.60;51.70;;;;;;5012166;28;20205;-90
2021/09/06 10:14:29;;;;;;;8.65;7.95;;;26.60;49.10;;;;;;5019525;28;20273;-89
2021/09/06 10:17:04;;;;;;;9.27;7.97;;;26.60;47.80;;;;;;5018829;28;20236;-90
2021/09/06 10:19:53;;;;;;;8.75;7.93;;;26.60;47.30;;;;;;5013751;28;20200;-90
2021/09/06 10:22:29;;;;;;;8.45;7.75;;;26.90;47.30;;;;;;5014688;28;20268;-88
2021/09/06 10:25:04;;;;;;;8.70;7.90;;;26.90;47.60;;;;;;5031455;28;20211;-89
2021/09/06 10:27:32;;;;;;;8.43;7.63;;;27.00;46.90;;;;;;5011620;28;20194;-89
2021/09/06 10:30:08;;;;;;;9.02;7.60;;;27.20;46.80;;;;;;5015457;28;20186;-89
2021/09/06 10:32:48;;;;;;;8.80;8.00;;;27.50;46.10;;;;;;5015386;28;20406;-89
2021/09/06 10:35:23;;;;;;;8.35;7.60;;;27.60;45.40;;;;;;5004951;28;20719;-88
2021/09/06 10:38:18;;;;;;;8.85;7.95;;;27.90;44.30;;;;;;5024875;28;20181;-90
2021/09/06 10:40:45;;;;;;;8.48;7.60;;;28.00;42.50;;;;;;5005742;28;20241;-89
2021/09/06 10:43:24;;;;;;;8.55;7.80;;;27.90;42.20;;;;;;5021486;28;20178;-88
2021/09/06 10:45:52;;;;;;;8.23;7.43;;;28.30;42.20;;;;;;5024605;28;20227;-93
2021/09/06 10:48:24;;;;;;;8.85;8.00;;;28.50;40.10;;;;;;5036354;28;20174;-93
2021/09/06 10:50:51;;;;;;;8.82;8.13;;;29.00;41.90;;;;;;5015365;28;20196;-90
2021/09/06 10:53:20;;;;;;;9.07;8.27;;;29.20;39.20;;;;;;5016566;28;20276;-89
2021/09/06 10:55:51;;;;;;;8.45;7.82;;;28.80;38.00;;;;;;5012587;28;20233;-89
2021/09/06 10:58:26;;;;;;;8.07;7.28;;;28.60;39.20;;;;;;5077137;28;20563;-88
2021/09/06 11:00:54;;;;;;;8.70;7.90;;;28.60;41.60;;;;;;5078603;28;20721;-89
2021/09/06 11:03:25;;;;;;;8.88;8.07;;;28.70;42.00;;;;;;5078415;28;20184;-88
2021/09/06 11:05:56;;;;;;;8.55;7.70;;;29.00;42.40;;;;;;5060012;28;20253;-89
2021/09/06 11:08:24;;;;;;;8.07;7.47;;;29.30;36.90;;;;;;5074506;28;20211;-90
2021/09/06 11:10:50;;;;;;;7.65;6.95;;;29.50;33.60;;;;;;5074894;28;20192;-88
2021/09/06 11:13:15;;;;;;;7.78;7.18;;;29.40;31.30;;;;;;5074371;28;20202;-88
2021/09/06 11:15:41;;;;;;;8.43;7.72;;;29.50;31.50;;;;;;5075872;28;20270;-89
2021/09/06 11:18:08;;;;;;;8.18;7.38;;;29.80;30.70;;;;;;5079859;28;20218;-89
2021/09/06 11:20:36;;;;;;;9.05;7.95;;;29.90;31.20;;;;;;5076787;28;20176;-90
2021/09/06 11:23:08;;;;;;;8.27;7.53;;;30.00;33.10;;;;;;5059577;28;20215;-89
2021/09/06 11:25:35;;;;;;;8.13;7.53;;;30.20;31.30;;;;;;5074289;28;20227;-89
2021/09/06 11:28:13;;;;;;;7.63;7.03;;;30.50;30.00;;;;;;5075968;28;20187;-90
2021/09/06 11:30:42;;;;;;;8.13;7.53;;;30.60;30.80;;;;;;5073899;28;20180;-91
2021/09/06 11:33:10;;;;;;;8.43;7.50;;;30.40;30.70;;;;;;5069196;28;20188;-91
2021/09/06 11:35:44;;;;;;;7.93;7.22;;;30.70;30.00;;;;;;5072869;28;20214;-90
2021/09/06 11:38:11;;;;;;;8.65;7.78;;;30.90;29.60;;;;;;5067816;28;20214;-91
2021/09/06 11:40:38;;;;;;;7.40;6.80;;;31.00;29.10;;;;;;5068430;28;20176;-90
2021/09/06 11:43:05;;;;;;;7.32;6.63;;;31.10;29.90;;;;;;5070757;28;20259;-91
2021/09/06 11:45:31;;;;;;;7.60;7.10;;;31.20;28.40;;;;;;5070867;28;20218;-90
2021/09/06 11:48:05;;;;;;;7.97;7.35;;;31.50;28.00;;;;;;5068724;28;20247;-91
2021/09/06 11:50:37;;;;;;;7.85;7.25;;;31.30;28.40;;;;;;5065139;28;20195;-90
2021/09/06 11:53:06;;;;;;;7.88;7.28;;;31.50;28.40;;;;;;5071732;28;20184;-90
2021/09/06 11:55:33;;;;;;;7.65;6.95;;;31.50;27.90;;;;;;5076009;28;20298;-91
2021/09/06 11:58:10;;;;;;;8.10;7.40;;;31.40;27.10;;;;;;5069791;28;20759;-91
2021/09/06 12:00:38;;;;;;;7.32;6.32;;;31.50;27.30;;;;;;5059124;28;20191;-91
2021/09/06 12:03:04;;;;;;;7.85;7.15;;;31.50;27.20;;;;;;5073869;28;20455;-90
2021/09/06 12:05:48;;;;;;;8.40;7.45;;;31.80;26.60;;;;;;5066621;28;20218;-90
2021/09/06 12:08:16;;;;;;;7.70;7.00;;;32.10;27.30;;;;;;5050816;28;20196;-91
2021/09/06 12:10:46;;;;;;;7.65;7.05;;;32.40;27.20;;;;;;5058247;28;21148;-91
2021/09/06 12:13:17;;;;;;;7.90;7.30;;;32.50;26.40;;;;;;5045626;28;20275;-90
2021/09/06 12:15:54;;;;;;;7.78;7.18;;;32.60;27.20;;;;;;5060149;28;20220;-91
2021/09/06 12:18:20;;;;;;;7.70;7.10;;;32.80;27.30;;;;;;5059674;28;20212;-91
2021/09/06 12:20:46;;;;;;;7.53;6.97;;;32.70;26.20;;;;;;5062134;28;20207;-92
2021/09/06 12:23:14;;;;;;;8.50;7.68;;;32.40;26.60;;;;;;5060318;28;20192;-91
2021/09/06 12:25:41;;;;;;;8.30;7.60;;;32.40;26.40;;;;;;5057631;28;20243;-92
2021/09/06 12:28:13;;;;;;;7.78;7.28;;;32.60;26.00;;;;;;5055043;28;20239;-91
2021/09/06 12:30:41;;;;;;;7.32;6.72;;;32.90;26.40;;;;;;5036656;28;20733;-91
2021/09/06 12:33:08;;;;;;;7.95;7.13;;;32.80;26.00;;;;;;5053739;28;20279;-90
2021/09/06 12:35:34;;;;;;;7.55;7.05;;;32.60;26.20;;;;;;5054548;28;20207;-91
2021/09/06 12:38:00;;;;;;;8.02;7.43;;;32.70;26.10;;;;;;5048234;28;20215;-91
2021/09/06 12:40:36;;;;;;;7.20;6.70;;;33.00;26.00;;;;;;5057992;28;20215;-90
2021/09/06 12:43:02;;;;;;;9.63;7.43;;;33.00;25.60;;;;;;5035385;28;20247;-90
2021/09/06 12:45:29;;;;;;;7.97;7.47;;;33.60;25.10;;;;;;5033427;28;20204;-91
2021/09/06 12:47:56;;;;;;;7.97;7.30;;;33.40;25.10;;;;;;5053014;28;20283;-91
2021/09/06 12:50:22;;;;;;;7.60;7.00;;;33.30;24.40;;;;;;5054389;28;20192;-91
2021/09/06 12:52:48;;;;;;;8.63;7.97;;;33.70;23.40;;;;;;5051487;28;20208;-91
2021/09/06 12:55:14;;;;;;;8.63;8.02;;;33.60;24.70;;;;;;5050568;28;20232;-91
2021/09/06 12:57:40;;;;;;;8.50;7.80;;;33.80;26.70;;;;;;5053656;28;20216;-92
2021/09/06 13:00:07;;;;;;;9.35;8.65;;;33.70;27.50;;;;;;5048364;28;20199;-90
2021/09/06 13:02:33;;;;;;;10.40;8.40;;;33.90;26.50;;;;;;5053984;28;20180;-91
2021/09/06 13:04:58;;;;;;;8.85;8.25;;;33.60;27.50;;;;;;5041547;28;20255;-91
2021/09/06 13:07:24;;;;;;;8.50;7.80;;;33.90;26.80;;;;;;5052048;28;20196;-90
2021/09/06 13:09:50;;;;;;;8.95;8.30;;;34.10;25.70;;;;;;5051709;28;20204;-91
2021/09/06 13:12:15;;;;;;;8.32;7.63;;;34.10;25.10;;;;;;5054115;28;20256;-91
2021/09/06 13:14:41;;;;;;;8.68;7.90;;;34.10;25.50;;;;;;5036001;28;20467;-91
2021/09/06 13:17:07;;;;;;;8.85;8.25;;;34.40;26.20;;;;;;5048935;28;20285;-91
2021/09/06 13:19:33;;;;;;;9.63;8.82;;;34.20;26.20;;;;;;5050691;28;20651;-91
2021/09/06 13:21:59;;;;;;;9.07;8.38;;;34.20;25.80;;;;;;5055819;28;20261;-91
2021/09/06 13:24:25;;;;;;;9.10;8.20;;;34.00;26.10;;;;;;5061590;28;20221;-92
2021/09/06 13:26:51;;;;;;;9.18;8.48;;;34.20;26.10;;;;;;5054049;28;20187;-91
2021/09/06 13:29:16;;;;;;;9.02;8.43;;;34.70;25.60;;;;;;5062030;28;20224;-90
2021/09/06 13:31:44;;;;;;;9.20;8.60;;;34.60;25.40;;;;;;5057580;28;20242;-94
2021/09/06 13:34:10;;;;;;;9.43;8.73;;;34.70;26.30;;;;;;5074521;28;20196;-94
2021/09/06 13:36:36;;;;;;;8.90;8.20;;;35.00;25.10;;;;;;5058454;28;20216;-94
2021/09/06 13:39:03;;;;;;;9.02;8.32;;;35.20;24.90;;;;;;5060810;28;20184;-93
2021/09/06 13:41:29;;;;;;;9.68;8.85;;;35.20;25.30;;;;;;5038015;28;20268;-94
2021/09/06 13:43:55;;;;;;;8.85;8.15;;;35.20;26.00;;;;;;5045953;23;20184;-91
2021/09/06 13:46:21;;;;;;;10.48;9.70;;;35.70;24.50;;;;;;5014632;28;20236;-91